PWSweather.com
Personal Weather Stations
Station Observations

SkegnessGB

Lat: 53.147585, Lon: 0.345774

Elevation: 18

Station Type: Fine Offset WH3080

http://www.skegnessweather.info/

High Low Average
Temperature 45.1°F7.3°C 32.0°F0.0°C 38.8°F3.8°C
Dew Point 38.6°F3.7°C 25.8°F-3.4°C 32.9°F0.5°C
Winds 10.0 mph 16.1 kmh Calm Calm 3.0 mph E4.8 kmh E
Wind Gusts 11.8 mph19.0 kmh -- 4.0 mph6.4 kmh
Humidity 86% 66% 79%
Pressure 30.32 in1026.8 mb 30.16 in1021.3 mb -
Precipitation 0.00 in0.0 mm - -
Hour Temp Dew Point Humidity Winds Wind Gusts Pressure Precip Precip Rate Daily Precip Total
12:00 AM 40.3°F4.6°C 32.6°F0.3°C 74% 2.0 mph NNE3.2 kmh NNE 3.4 mph5.5 kmh 30.17 in1021.7 mb 0.01 in0.3 mm 0.00 in0.0 mm 0.01 in0.3 mm
12:10 AM 40.3°F4.6°C 32.6°F0.3°C 74% 1.5 mph N2.4 kmh N 4.2 mph6.8 kmh 30.17 in1021.7 mb 0.00 in0.0 mm 0.00 in0.0 mm 0.01 in0.3 mm
12:20 AM 40.5°F4.7°C 33.2°F0.7°C 75% 2.7 mph NE4.3 kmh NE 3.4 mph5.5 kmh 30.18 in1022.0 mb 0.00 in0.0 mm 0.00 in0.0 mm 0.01 in0.3 mm
12:30 AM 40.8°F4.9°C 33.5°F0.8°C 75% 3.2 mph NNE5.1 kmh NNE 4.9 mph7.9 kmh 30.17 in1021.7 mb 0.00 in0.0 mm 0.00 in0.0 mm 0.01 in0.3 mm
12:40 AM 41.4°F5.2°C 34.0°F1.1°C 75% 3.8 mph NE6.1 kmh NE 4.9 mph7.9 kmh 30.17 in1021.7 mb 0.00 in0.0 mm 0.00 in0.0 mm 0.01 in0.3 mm
12:50 AM 41.2°F5.1°C 33.9°F1.1°C 75% 2.3 mph NNE3.7 kmh NNE 4.2 mph6.8 kmh 30.17 in1021.7 mb 0.00 in0.0 mm 0.00 in0.0 mm 0.01 in0.3 mm
01:00 AM 40.8°F4.9°C 33.2°F0.7°C 74% 1.8 mph NNE2.9 kmh NNE 3.4 mph5.5 kmh 30.17 in1021.7 mb 0.00 in0.0 mm 0.00 in0.0 mm 0.01 in0.3 mm
01:10 AM 40.5°F4.7°C 32.5°F0.3°C 73% 0.8 mph NE1.3 kmh NE 3.4 mph5.5 kmh 30.17 in1021.7 mb 0.00 in0.0 mm 0.00 in0.0 mm 0.01 in0.3 mm
01:20 AM 40.3°F4.6°C 32.6°F0.3°C 74% 1.2 mph N1.9 kmh N 2.5 mph4.0 kmh 30.17 in1021.7 mb 0.00 in0.0 mm 0.00 in0.0 mm 0.01 in0.3 mm
01:30 AM 40.1°F4.5°C 32.5°F0.3°C 74% 0.5 mph NNE0.8 kmh NNE 3.4 mph5.5 kmh 30.16 in1021.3 mb 0.00 in0.0 mm 0.00 in0.0 mm 0.01 in0.3 mm
01:40 AM 39.9°F4.4°C 32.3°F0.2°C 74% 1.0 mph NNE1.6 kmh NNE 3.4 mph5.5 kmh 30.17 in1021.7 mb 0.00 in0.0 mm 0.00 in0.0 mm 0.01 in0.3 mm
01:50 AM 39.0°F3.9°C 31.4°F-0.3°C 74% Calm Calm 0.7 mph1.1 kmh 30.17 in1021.7 mb 0.00 in0.0 mm 0.00 in0.0 mm 0.01 in0.3 mm
02:00 AM 38.1°F3.4°C 30.6°F-0.8°C 74% 0.5 mph N0.8 kmh N 2.5 mph4.0 kmh 30.17 in1021.7 mb 0.00 in0.0 mm 0.00 in0.0 mm 0.01 in0.3 mm
02:10 AM 36.9°F2.7°C 29.3°F-1.5°C 74% Calm Calm 0.7 mph1.1 kmh 30.17 in1021.7 mb 0.00 in0.0 mm 0.00 in0.0 mm 0.01 in0.3 mm
02:20 AM 35.6°F2.0°C 28.1°F-2.2°C 74% Calm Calm -- 30.17 in1021.7 mb 0.00 in0.0 mm 0.00 in0.0 mm 0.01 in0.3 mm
02:30 AM 34.9°F1.6°C 27.4°F-2.6°C 74% Calm Calm -- 30.16 in1021.3 mb 0.00 in0.0 mm 0.00 in0.0 mm 0.01 in0.3 mm
02:40 AM 34.2°F1.2°C 27.1°F-2.7°C 75% Calm Calm 0.7 mph1.1 kmh 30.17 in1021.7 mb 0.00 in0.0 mm 0.00 in0.0 mm 0.01 in0.3 mm
02:50 AM 33.4°F0.8°C 26.4°F-3.1°C 75% Calm Calm -- 30.17 in1021.7 mb 0.00 in0.0 mm 0.00 in0.0 mm 0.01 in0.3 mm
03:00 AM 32.9°F0.5°C 26.2°F-3.2°C 76% Calm Calm -- 30.17 in1021.7 mb 0.00 in0.0 mm 0.00 in0.0 mm 0.01 in0.3 mm
03:10 AM 32.5°F0.3°C 26.1°F-3.3°C 77% Calm Calm -- 30.16 in1021.3 mb 0.00 in0.0 mm 0.00 in0.0 mm 0.01 in0.3 mm
03:20 AM 32.2°F0.1°C 25.8°F-3.4°C 77% Calm Calm -- 30.16 in1021.3 mb 0.00 in0.0 mm 0.00 in0.0 mm 0.01 in0.3 mm
03:30 AM 32.0°F0.0°C 25.9°F-3.4°C 78% Calm Calm 0.7 mph1.1 kmh 30.16 in1021.3 mb 0.00 in0.0 mm 0.00 in0.0 mm 0.01 in0.3 mm
03:40 AM 32.0°F0.0°C 26.2°F-3.2°C 79% Calm Calm 0.7 mph1.1 kmh 30.16 in1021.3 mb 0.00 in0.0 mm 0.00 in0.0 mm 0.01 in0.3 mm
03:50 AM 32.2°F0.1°C 26.7°F-2.9°C 80% Calm Calm 0.7 mph1.1 kmh 30.16 in1021.3 mb 0.00 in0.0 mm 0.00 in0.0 mm 0.01 in0.3 mm
04:00 AM 32.5°F0.3°C 27.1°F-2.7°C 80% 0.1 mph NE0.2 kmh NE 1.7 mph2.7 kmh 30.16 in1021.3 mb 0.00 in0.0 mm 0.00 in0.0 mm 0.01 in0.3 mm
04:10 AM 32.7°F0.4°C 27.5°F-2.5°C 81% 0.5 mph NE0.8 kmh NE 1.7 mph2.7 kmh 30.16 in1021.3 mb 0.00 in0.0 mm 0.00 in0.0 mm 0.01 in0.3 mm
04:20 AM 32.5°F0.3°C 27.4°F-2.6°C 81% Calm Calm 0.7 mph1.1 kmh 30.16 in1021.3 mb 0.00 in0.0 mm 0.00 in0.0 mm 0.01 in0.3 mm
04:30 AM 32.5°F0.3°C 27.4°F-2.6°C 81% Calm Calm 0.7 mph1.1 kmh 30.16 in1021.3 mb 0.00 in0.0 mm 0.00 in0.0 mm 0.01 in0.3 mm
04:40 AM 32.7°F0.4°C 27.8°F-2.3°C 82% Calm Calm 0.7 mph1.1 kmh 30.16 in1021.3 mb 0.00 in0.0 mm 0.00 in0.0 mm 0.01 in0.3 mm
04:50 AM 33.4°F0.8°C 28.5°F-1.9°C 82% 0.1 mph N0.2 kmh N 1.7 mph2.7 kmh 30.16 in1021.3 mb 0.00 in0.0 mm 0.00 in0.0 mm 0.01 in0.3 mm
05:00 AM 36.0°F2.2°C 31.6°F-0.2°C 84% 2.2 mph NE3.5 kmh NE 3.4 mph5.5 kmh 30.16 in1021.3 mb 0.00 in0.0 mm 0.00 in0.0 mm 0.01 in0.3 mm
05:10 AM 37.4°F3.0°C 33.3°F0.7°C 85% 3.9 mph N6.3 kmh N 3.4 mph5.5 kmh 30.16 in1021.3 mb 0.00 in0.0 mm 0.00 in0.0 mm 0.01 in0.3 mm
05:20 AM 38.1°F3.4°C 34.0°F1.1°C 85% 3.2 mph NNE5.1 kmh NNE 3.4 mph5.5 kmh 30.16 in1021.3 mb 0.00 in0.0 mm 0.00 in0.0 mm 0.01 in0.3 mm
05:30 AM 38.8°F3.8°C 35.0°F1.7°C 86% 2.2 mph NE3.5 kmh NE 4.2 mph6.8 kmh 30.16 in1021.3 mb 0.00 in0.0 mm 0.00 in0.0 mm 0.01 in0.3 mm
05:40 AM 39.7°F4.3°C 35.6°F2.0°C 85% 4.0 mph N6.4 kmh N 4.9 mph7.9 kmh 30.16 in1021.3 mb 0.00 in0.0 mm 0.00 in0.0 mm 0.01 in0.3 mm
05:50 AM 40.6°F4.8°C 36.2°F2.3°C 84% 5.6 mph NNE9.0 kmh NNE 5.9 mph9.5 kmh 30.17 in1021.7 mb 0.00 in0.0 mm 0.00 in0.0 mm 0.01 in0.3 mm
06:00 AM 41.4°F5.2°C 36.3°F2.4°C 82% 5.2 mph NNE8.4 kmh NNE 5.9 mph9.5 kmh 30.16 in1021.3 mb 0.00 in0.0 mm 0.00 in0.0 mm 0.01 in0.3 mm
06:10 AM 40.8°F4.9°C 35.4°F1.9°C 81% 2.6 mph NNE4.2 kmh NNE 4.2 mph6.8 kmh 30.16 in1021.3 mb 0.00 in0.0 mm 0.00 in0.0 mm 0.01 in0.3 mm
06:20 AM 41.0°F5.0°C 35.3°F1.8°C 80% 3.5 mph NNE5.6 kmh NNE 4.9 mph7.9 kmh 30.16 in1021.3 mb 0.00 in0.0 mm 0.00 in0.0 mm 0.01 in0.3 mm
06:30 AM 39.0°F3.9°C 32.7°F0.4°C 78% 1.0 mph NE1.6 kmh NE 3.4 mph5.5 kmh 30.16 in1021.3 mb 0.00 in0.0 mm 0.00 in0.0 mm 0.01 in0.3 mm
06:40 AM 37.2°F2.9°C 30.7°F-0.7°C 77% 0.4 mph NE0.6 kmh NE 1.7 mph2.7 kmh 30.16 in1021.3 mb 0.00 in0.0 mm 0.00 in0.0 mm 0.01 in0.3 mm
06:50 AM 37.2°F2.9°C 31.3°F-0.4°C 79% 1.9 mph N3.1 kmh N 4.2 mph6.8 kmh 30.17 in1021.7 mb 0.00 in0.0 mm 0.00 in0.0 mm 0.01 in0.3 mm
07:00 AM 39.2°F4.0°C 33.9°F1.1°C 81% 4.0 mph NE6.4 kmh NE 4.9 mph7.9 kmh 30.16 in1021.3 mb 0.00 in0.0 mm 0.00 in0.0 mm 0.01 in0.3 mm
07:10 AM 40.3°F4.6°C 35.2°F1.8°C 82% 6.0 mph NE9.7 kmh NE 4.9 mph7.9 kmh 30.17 in1021.7 mb 0.00 in0.0 mm 0.00 in0.0 mm 0.01 in0.3 mm
07:20 AM 40.1°F4.5°C 34.7°F1.5°C 81% 2.4 mph NE3.9 kmh NE 3.4 mph5.5 kmh 30.17 in1021.7 mb 0.00 in0.0 mm 0.00 in0.0 mm 0.01 in0.3 mm
07:30 AM 38.3°F3.5°C 32.7°F0.4°C 80% Calm Calm 0.7 mph1.1 kmh 30.18 in1022.0 mb 0.00 in0.0 mm 0.00 in0.0 mm 0.01 in0.3 mm
07:40 AM 38.1°F3.4°C 32.5°F0.3°C 80% 1.3 mph N2.1 kmh N 4.2 mph6.8 kmh 30.18 in1022.0 mb 0.00 in0.0 mm 0.00 in0.0 mm 0.01 in0.3 mm
07:50 AM 38.7°F3.7°C 33.3°F0.7°C 81% 1.4 mph NNE2.3 kmh NNE 4.9 mph7.9 kmh 30.19 in1022.4 mb 0.00 in0.0 mm 0.00 in0.0 mm 0.01 in0.3 mm
08:00 AM 37.8°F3.2°C 32.1°F0.1°C 80% 0.3 mph ENE0.5 kmh ENE 1.7 mph2.7 kmh 30.19 in1022.4 mb 0.00 in0.0 mm 0.00 in0.0 mm 0.01 in0.3 mm
08:10 AM 39.0°F3.9°C 33.7°F0.9°C 81% 3.4 mph NNE5.5 kmh NNE 4.9 mph7.9 kmh 30.19 in1022.4 mb 0.00 in0.0 mm 0.00 in0.0 mm 0.01 in0.3 mm
08:20 AM 39.9°F4.4°C 34.9°F1.6°C 82% 3.6 mph NE5.8 kmh NE 5.9 mph9.5 kmh 30.19 in1022.4 mb 0.00 in0.0 mm 0.00 in0.0 mm 0.01 in0.3 mm
08:30 AM 40.5°F4.7°C 35.4°F1.9°C 82% 3.8 mph NE6.1 kmh NE 6.6 mph10.6 kmh 30.19 in1022.4 mb 0.00 in0.0 mm 0.00 in0.0 mm 0.01 in0.3 mm
08:40 AM 41.0°F5.0°C 35.9°F2.2°C 82% 3.9 mph NE6.3 kmh NE 4.9 mph7.9 kmh 30.19 in1022.4 mb 0.00 in0.0 mm 0.00 in0.0 mm 0.01 in0.3 mm
08:50 AM 39.2°F4.0°C 33.5°F0.8°C 80% 0.5 mph SSE0.8 kmh SSE 1.7 mph2.7 kmh 30.19 in1022.4 mb 0.00 in0.0 mm 0.00 in0.0 mm 0.01 in0.3 mm
09:00 AM 38.3°F3.5°C 32.7°F0.4°C 80% 1.8 mph NNE2.9 kmh NNE 3.4 mph5.5 kmh 30.20 in1022.7 mb 0.00 in0.0 mm 0.00 in0.0 mm 0.01 in0.3 mm
09:10 AM 38.7°F3.7°C 33.0°F0.6°C 80% 3.0 mph NE4.8 kmh NE 3.4 mph5.5 kmh 30.21 in1023.0 mb 0.00 in0.0 mm 0.00 in0.0 mm 0.01 in0.3 mm
09:20 AM 39.0°F3.9°C 33.7°F0.9°C 81% 1.5 mph NE2.4 kmh NE 3.4 mph5.5 kmh 30.21 in1023.0 mb 0.00 in0.0 mm 0.00 in0.0 mm 0.01 in0.3 mm
09:30 AM 40.6°F4.8°C 35.6°F2.0°C 82% 2.9 mph NE4.7 kmh NE 8.4 mph13.5 kmh 30.21 in1023.0 mb 0.00 in0.0 mm 0.00 in0.0 mm 0.01 in0.3 mm
09:40 AM 43.3°F6.3°C 38.5°F3.6°C 83% 9.1 mph NNE14.6 kmh NNE 10.1 mph16.3 kmh 30.21 in1023.0 mb 0.00 in0.0 mm 0.00 in0.0 mm 0.01 in0.3 mm
09:50 AM 44.1°F6.7°C 38.3°F3.5°C 80% 10.0 mph NNE16.1 kmh NNE 10.1 mph16.3 kmh 30.22 in1023.4 mb 0.00 in0.0 mm 0.00 in0.0 mm 0.01 in0.3 mm
10:00 AM 43.9°F6.6°C 36.5°F2.5°C 75% 8.7 mph NNE14.0 kmh NNE 10.1 mph16.3 kmh 30.22 in1023.4 mb 0.00 in0.0 mm 0.00 in0.0 mm 0.01 in0.3 mm
10:10 AM 43.5°F6.4°C 35.4°F1.9°C 73% 9.0 mph NE14.5 kmh NE 10.1 mph16.3 kmh 30.22 in1023.4 mb 0.00 in0.0 mm 0.00 in0.0 mm 0.01 in0.3 mm
10:20 AM 45.0°F7.2°C 35.4°F1.9°C 69% 9.6 mph NE15.4 kmh NE 11.8 mph19.0 kmh 30.22 in1023.4 mb 0.00 in0.0 mm 0.00 in0.0 mm 0.01 in0.3 mm
10:30 AM 45.1°F7.3°C 34.5°F1.4°C 66% 8.8 mph NNE14.2 kmh NNE 8.4 mph13.5 kmh 30.22 in1023.4 mb 0.00 in0.0 mm 0.00 in0.0 mm 0.01 in0.3 mm
10:40 AM 44.6°F7.0°C 34.3°F1.3°C 67% 6.6 mph NNE10.6 kmh NNE 8.4 mph13.5 kmh 30.22 in1023.4 mb 0.00 in0.0 mm 0.00 in0.0 mm 0.01 in0.3 mm
10:50 AM 44.8°F7.1°C 35.2°F1.8°C 69% 3.2 mph NNE5.1 kmh NNE 6.6 mph10.6 kmh 30.22 in1023.4 mb 0.00 in0.0 mm 0.00 in0.0 mm 0.01 in0.3 mm
11:00 AM 44.4°F6.9°C 36.6°F2.6°C 74% 3.9 mph NNE6.3 kmh NNE 5.9 mph9.5 kmh 30.22 in1023.4 mb 0.00 in0.0 mm 0.00 in0.0 mm 0.01 in0.3 mm
11:10 AM 43.5°F6.4°C 36.1°F2.3°C 75% 3.3 mph NE5.3 kmh NE 4.2 mph6.8 kmh 30.22 in1023.4 mb 0.00 in0.0 mm 0.00 in0.0 mm 0.01 in0.3 mm
11:20 AM 42.8°F6.0°C 35.4°F1.9°C 75% 1.4 mph ENE2.3 kmh ENE 4.2 mph6.8 kmh 30.22 in1023.4 mb 0.00 in0.0 mm 0.00 in0.0 mm 0.01 in0.3 mm
11:30 AM 42.6°F5.9°C 35.9°F2.2°C 77% 2.0 mph W3.2 kmh W 3.4 mph5.5 kmh 30.21 in1023.0 mb 0.00 in0.0 mm 0.00 in0.0 mm 0.01 in0.3 mm
11:40 AM 42.8°F6.0°C 36.4°F2.4°C 78% 1.7 mph NNW2.7 kmh NNW 3.4 mph5.5 kmh 30.22 in1023.4 mb 0.00 in0.0 mm 0.00 in0.0 mm 0.01 in0.3 mm
11:50 AM 43.3°F6.3°C 37.3°F2.9°C 79% 1.7 mph WSW2.7 kmh WSW 3.4 mph5.5 kmh 30.21 in1023.0 mb 0.00 in0.0 mm 0.00 in0.0 mm 0.01 in0.3 mm
12:00 PM 43.7°F6.5°C 37.9°F3.3°C 80% 1.3 mph NNE2.1 kmh NNE 3.4 mph5.5 kmh 30.21 in1023.0 mb 0.00 in0.0 mm 0.00 in0.0 mm 0.01 in0.3 mm
12:10 PM 43.9°F6.6°C 38.1°F3.4°C 80% 3.3 mph NNE5.3 kmh NNE 4.9 mph7.9 kmh 30.22 in1023.4 mb 0.00 in0.0 mm 0.00 in0.0 mm 0.01 in0.3 mm
12:20 PM 44.4°F6.9°C 38.6°F3.7°C 80% 3.7 mph NE6.0 kmh NE 4.2 mph6.8 kmh 30.22 in1023.4 mb 0.00 in0.0 mm 0.00 in0.0 mm 0.01 in0.3 mm
12:30 PM 44.4°F6.9°C 38.3°F3.5°C 79% 5.4 mph NE8.7 kmh NE 7.6 mph12.2 kmh 30.21 in1023.0 mb 0.00 in0.0 mm 0.00 in0.0 mm 0.01 in0.3 mm
12:40 PM 43.7°F6.5°C 37.3°F2.9°C 78% 1.9 mph NE3.1 kmh NE 4.2 mph6.8 kmh 30.21 in1023.0 mb 0.00 in0.0 mm 0.00 in0.0 mm 0.01 in0.3 mm
12:50 PM 43.2°F6.2°C 36.1°F2.3°C 76% 2.5 mph NNE4.0 kmh NNE 4.2 mph6.8 kmh 30.22 in1023.4 mb 0.00 in0.0 mm 0.00 in0.0 mm 0.01 in0.3 mm
01:00 PM 43.5°F6.4°C 36.8°F2.7°C 77% 1.9 mph E3.1 kmh E 4.2 mph6.8 kmh 30.21 in1023.0 mb 0.00 in0.0 mm 0.00 in0.0 mm 0.01 in0.3 mm
01:10 PM 44.1°F6.7°C 38.3°F3.5°C 80% 3.4 mph SSE5.5 kmh SSE 4.9 mph7.9 kmh 30.22 in1023.4 mb 0.00 in0.0 mm 0.00 in0.0 mm 0.01 in0.3 mm
01:20 PM 44.1°F6.7°C 38.3°F3.5°C 80% 2.6 mph E4.2 kmh E 4.2 mph6.8 kmh 30.21 in1023.0 mb 0.00 in0.0 mm 0.00 in0.0 mm 0.01 in0.3 mm
01:30 PM 44.2°F6.8°C 38.5°F3.6°C 80% 4.5 mph NE7.2 kmh NE 4.9 mph7.9 kmh 30.22 in1023.4 mb 0.00 in0.0 mm 0.00 in0.0 mm 0.01 in0.3 mm
01:40 PM 44.2°F6.8°C 38.5°F3.6°C 80% 4.0 mph ENE6.4 kmh ENE 6.6 mph10.6 kmh 30.22 in1023.4 mb 0.00 in0.0 mm 0.00 in0.0 mm 0.01 in0.3 mm
01:50 PM 43.9°F6.6°C 38.1°F3.4°C 80% 3.3 mph E5.3 kmh E 4.2 mph6.8 kmh 30.22 in1023.4 mb 0.00 in0.0 mm 0.00 in0.0 mm 0.01 in0.3 mm
02:00 PM 43.9°F6.6°C 38.1°F3.4°C 80% 2.9 mph NE4.7 kmh NE 4.2 mph6.8 kmh 30.22 in1023.4 mb 0.00 in0.0 mm 0.00 in0.0 mm 0.01 in0.3 mm
02:10 PM 43.5°F6.4°C 37.8°F3.2°C 80% 5.8 mph NE9.3 kmh NE 7.6 mph12.2 kmh 30.23 in1023.7 mb 0.00 in0.0 mm 0.00 in0.0 mm 0.01 in0.3 mm
02:20 PM 43.3°F6.3°C 36.9°F2.7°C 78% 6.2 mph NNE10.0 kmh NNE 7.6 mph12.2 kmh 30.23 in1023.7 mb 0.00 in0.0 mm 0.00 in0.0 mm 0.01 in0.3 mm
02:30 PM 43.2°F6.2°C 36.4°F2.4°C 77% 4.0 mph NE6.4 kmh NE 8.4 mph13.5 kmh 30.23 in1023.7 mb 0.00 in0.0 mm 0.00 in0.0 mm 0.01 in0.3 mm
02:40 PM 42.4°F5.8°C 35.4°F1.9°C 76% 4.2 mph NE6.8 kmh NE 5.9 mph9.5 kmh 30.24 in1024.0 mb 0.00 in0.0 mm 0.00 in0.0 mm 0.01 in0.3 mm
02:50 PM 42.1°F5.6°C 35.4°F1.9°C 77% 3.2 mph ENE5.1 kmh ENE 4.9 mph7.9 kmh 30.24 in1024.0 mb 0.00 in0.0 mm 0.00 in0.0 mm 0.01 in0.3 mm
03:00 PM 41.5°F5.3°C 35.5°F1.9°C 79% 3.5 mph NE5.6 kmh NE 4.9 mph7.9 kmh 30.24 in1024.0 mb 0.00 in0.0 mm 0.00 in0.0 mm 0.01 in0.3 mm
03:10 PM 41.2°F5.1°C 35.5°F1.9°C 80% 3.4 mph NE5.5 kmh NE 5.9 mph9.5 kmh 30.25 in1024.4 mb 0.00 in0.0 mm 0.00 in0.0 mm 0.01 in0.3 mm
03:20 PM 41.0°F5.0°C 35.3°F1.8°C 80% 4.0 mph N6.4 kmh N 6.6 mph10.6 kmh 30.25 in1024.4 mb 0.00 in0.0 mm 0.00 in0.0 mm 0.01 in0.3 mm
03:30 PM 40.8°F4.9°C 35.1°F1.7°C 80% 4.9 mph NE7.9 kmh NE 5.9 mph9.5 kmh 30.25 in1024.4 mb 0.00 in0.0 mm 0.00 in0.0 mm 0.01 in0.3 mm
03:40 PM 40.8°F4.9°C 35.1°F1.7°C 80% 3.0 mph ENE4.8 kmh ENE 4.9 mph7.9 kmh 30.25 in1024.4 mb 0.00 in0.0 mm 0.00 in0.0 mm 0.01 in0.3 mm
03:50 PM 40.6°F4.8°C 35.0°F1.7°C 80% 3.2 mph NE5.1 kmh NE 4.9 mph7.9 kmh 30.25 in1024.4 mb 0.00 in0.0 mm 0.00 in0.0 mm 0.01 in0.3 mm
04:00 PM 40.6°F4.8°C 35.0°F1.7°C 80% 3.3 mph NE5.3 kmh NE 4.9 mph7.9 kmh 30.26 in1024.7 mb 0.00 in0.0 mm 0.00 in0.0 mm 0.01 in0.3 mm
04:10 PM 40.8°F4.9°C 35.1°F1.7°C 80% 5.2 mph ENE8.4 kmh ENE 7.6 mph12.2 kmh 30.26 in1024.7 mb 0.00 in0.0 mm 0.00 in0.0 mm 0.01 in0.3 mm
04:20 PM 40.8°F4.9°C 35.1°F1.7°C 80% 3.8 mph NE6.1 kmh NE 5.9 mph9.5 kmh 30.27 in1025.1 mb 0.00 in0.0 mm 0.00 in0.0 mm 0.01 in0.3 mm
04:30 PM 40.6°F4.8°C 35.3°F1.8°C 81% 1.8 mph E2.9 kmh E 4.2 mph6.8 kmh 30.27 in1025.1 mb 0.00 in0.0 mm 0.00 in0.0 mm 0.01 in0.3 mm
04:40 PM 40.5°F4.7°C 35.1°F1.7°C 81% 2.6 mph E4.2 kmh E 4.2 mph6.8 kmh 30.27 in1025.1 mb 0.00 in0.0 mm 0.00 in0.0 mm 0.01 in0.3 mm
04:50 PM 40.5°F4.7°C 35.1°F1.7°C 81% 3.2 mph ESE5.1 kmh ESE 4.9 mph7.9 kmh 30.27 in1025.1 mb 0.00 in0.0 mm 0.00 in0.0 mm 0.01 in0.3 mm
05:00 PM 40.5°F4.7°C 35.1°F1.7°C 81% 4.2 mph NE6.8 kmh NE 4.9 mph7.9 kmh 30.26 in1024.7 mb 0.00 in0.0 mm 0.00 in0.0 mm 0.01 in0.3 mm
05:10 PM 40.3°F4.6°C 35.2°F1.8°C 82% 2.6 mph NW4.2 kmh NW 4.2 mph6.8 kmh 30.26 in1024.7 mb 0.00 in0.0 mm 0.00 in0.0 mm 0.01 in0.3 mm
05:20 PM 39.9°F4.4°C 34.9°F1.6°C 82% 2.7 mph NE4.3 kmh NE 4.2 mph6.8 kmh 30.27 in1025.1 mb 0.00 in0.0 mm 0.00 in0.0 mm 0.01 in0.3 mm
05:30 PM 39.2°F4.0°C 34.2°F1.2°C 82% 2.6 mph ESE4.2 kmh ESE 4.2 mph6.8 kmh 30.27 in1025.1 mb 0.00 in0.0 mm 0.00 in0.0 mm 0.01 in0.3 mm
05:40 PM 38.7°F3.7°C 33.6°F0.9°C 82% 2.9 mph ENE4.7 kmh ENE 4.2 mph6.8 kmh 30.26 in1024.7 mb 0.00 in0.0 mm 0.00 in0.0 mm 0.01 in0.3 mm
05:50 PM 38.3°F3.5°C 33.3°F0.7°C 82% 3.2 mph ESE5.1 kmh ESE 4.2 mph6.8 kmh 30.27 in1025.1 mb 0.00 in0.0 mm 0.00 in0.0 mm 0.01 in0.3 mm
06:00 PM 38.1°F3.4°C 33.1°F0.6°C 82% 4.0 mph SE6.4 kmh SE 4.9 mph7.9 kmh 30.27 in1025.1 mb 0.00 in0.0 mm 0.00 in0.0 mm 0.01 in0.3 mm
06:10 PM 37.8°F3.2°C 32.8°F0.4°C 82% 3.4 mph ENE5.5 kmh ENE 4.9 mph7.9 kmh 30.27 in1025.1 mb 0.00 in0.0 mm 0.00 in0.0 mm 0.01 in0.3 mm
06:20 PM 37.4°F3.0°C 32.4°F0.2°C 82% 1.9 mph S3.1 kmh S 4.2 mph6.8 kmh 30.28 in1025.4 mb 0.00 in0.0 mm 0.00 in0.0 mm 0.01 in0.3 mm
06:30 PM 37.0°F2.8°C 32.1°F0.1°C 82% 2.6 mph NE4.2 kmh NE 5.9 mph9.5 kmh 30.28 in1025.4 mb 0.00 in0.0 mm 0.00 in0.0 mm 0.01 in0.3 mm
06:40 PM 36.7°F2.6°C 31.7°F-0.2°C 82% 2.5 mph WNW4.0 kmh WNW 3.4 mph5.5 kmh 30.28 in1025.4 mb 0.00 in0.0 mm 0.00 in0.0 mm 0.01 in0.3 mm
06:50 PM 36.5°F2.5°C 31.5°F-0.3°C 82% 2.3 mph E3.7 kmh E 4.9 mph7.9 kmh 30.28 in1025.4 mb 0.00 in0.0 mm 0.00 in0.0 mm 0.01 in0.3 mm
07:00 PM 36.3°F2.4°C 31.4°F-0.3°C 82% 2.2 mph E3.5 kmh E 3.4 mph5.5 kmh 30.28 in1025.4 mb 0.00 in0.0 mm 0.00 in0.0 mm 0.01 in0.3 mm
07:10 PM 36.1°F2.3°C 31.2°F-0.4°C 82% 2.0 mph SSE3.2 kmh SSE 3.4 mph5.5 kmh 30.28 in1025.4 mb 0.00 in0.0 mm 0.00 in0.0 mm 0.01 in0.3 mm
07:20 PM 36.0°F2.2°C 31.0°F-0.6°C 82% 2.4 mph N3.9 kmh N 3.4 mph5.5 kmh 30.29 in1025.7 mb 0.00 in0.0 mm 0.00 in0.0 mm 0.01 in0.3 mm
07:30 PM 35.8°F2.1°C 30.8°F-0.7°C 82% 2.1 mph ESE3.4 kmh ESE 4.2 mph6.8 kmh 30.29 in1025.7 mb 0.00 in0.0 mm 0.00 in0.0 mm 0.01 in0.3 mm
07:40 PM 35.8°F2.1°C 30.8°F-0.7°C 82% 2.4 mph N3.9 kmh N 3.4 mph5.5 kmh 30.29 in1025.7 mb 0.00 in0.0 mm 0.00 in0.0 mm 0.01 in0.3 mm
07:50 PM 35.6°F2.0°C 30.6°F-0.8°C 82% 2.7 mph E4.3 kmh E 4.2 mph6.8 kmh 30.29 in1025.7 mb 0.00 in0.0 mm 0.00 in0.0 mm 0.01 in0.3 mm
08:00 PM 35.6°F2.0°C 30.6°F-0.8°C 82% 3.1 mph SW5.0 kmh SW 4.2 mph6.8 kmh 30.29 in1025.7 mb 0.00 in0.0 mm 0.00 in0.0 mm 0.01 in0.3 mm
08:10 PM 35.6°F2.0°C 30.6°F-0.8°C 82% 2.7 mph S4.3 kmh S 3.4 mph5.5 kmh 30.29 in1025.7 mb 0.00 in0.0 mm 0.00 in0.0 mm 0.01 in0.3 mm
08:20 PM 35.4°F1.9°C 30.5°F-0.8°C 82% 1.6 mph NE2.6 kmh NE 3.4 mph5.5 kmh 30.30 in1026.1 mb 0.00 in0.0 mm 0.00 in0.0 mm 0.01 in0.3 mm
08:30 PM 35.4°F1.9°C 30.5°F-0.8°C 82% 1.5 mph ENE2.4 kmh ENE 3.4 mph5.5 kmh 30.30 in1026.1 mb 0.00 in0.0 mm 0.00 in0.0 mm 0.01 in0.3 mm
08:40 PM 35.6°F2.0°C 30.6°F-0.8°C 82% 3.5 mph SE5.6 kmh SE 4.2 mph6.8 kmh 30.30 in1026.1 mb 0.00 in0.0 mm 0.00 in0.0 mm 0.01 in0.3 mm
08:50 PM 36.0°F2.2°C 31.0°F-0.6°C 82% 3.3 mph E5.3 kmh E 4.9 mph7.9 kmh 30.31 in1026.4 mb 0.00 in0.0 mm 0.00 in0.0 mm 0.01 in0.3 mm
09:00 PM 36.0°F2.2°C 31.0°F-0.6°C 82% 2.9 mph NE4.7 kmh NE 4.2 mph6.8 kmh 30.31 in1026.4 mb 0.00 in0.0 mm 0.00 in0.0 mm 0.01 in0.3 mm
09:10 PM 36.0°F2.2°C 31.0°F-0.6°C 82% 2.1 mph NNW3.4 kmh NNW 4.2 mph6.8 kmh 30.31 in1026.4 mb 0.00 in0.0 mm 0.00 in0.0 mm 0.01 in0.3 mm
09:20 PM 36.0°F2.2°C 31.0°F-0.6°C 82% 1.7 mph NE2.7 kmh NE 3.4 mph5.5 kmh 30.31 in1026.4 mb 0.00 in0.0 mm 0.00 in0.0 mm 0.01 in0.3 mm
09:30 PM 35.4°F1.9°C 30.5°F-0.8°C 82% 1.1 mph SW1.8 kmh SW 2.5 mph4.0 kmh 30.30 in1026.1 mb 0.00 in0.0 mm 0.00 in0.0 mm 0.01 in0.3 mm
09:40 PM 35.1°F1.7°C 29.8°F-1.2°C 81% 1.6 mph WSW2.6 kmh WSW 3.4 mph5.5 kmh 30.30 in1026.1 mb 0.00 in0.0 mm 0.00 in0.0 mm 0.01 in0.3 mm
09:50 PM 34.5°F1.4°C 29.3°F-1.5°C 81% 0.6 mph SSW1.0 kmh SSW 3.4 mph5.5 kmh 30.31 in1026.4 mb 0.00 in0.0 mm 0.00 in0.0 mm 0.01 in0.3 mm
10:00 PM 34.3°F1.3°C 29.1°F-1.6°C 81% 1.7 mph ESE2.7 kmh ESE 3.4 mph5.5 kmh 30.31 in1026.4 mb 0.00 in0.0 mm 0.00 in0.0 mm 0.01 in0.3 mm
10:10 PM 34.3°F1.3°C 29.1°F-1.6°C 81% 1.7 mph ESE2.7 kmh ESE 3.4 mph5.5 kmh 30.30 in1026.1 mb 0.00 in0.0 mm 0.00 in0.0 mm 0.01 in0.3 mm
10:20 PM 34.2°F1.2°C 28.9°F-1.7°C 81% 1.3 mph SW2.1 kmh SW 2.5 mph4.0 kmh 30.30 in1026.1 mb 0.00 in0.0 mm 0.00 in0.0 mm 0.01 in0.3 mm
10:30 PM 34.2°F1.2°C 28.9°F-1.7°C 81% 1.1 mph WNW1.8 kmh WNW 3.4 mph5.5 kmh 30.30 in1026.1 mb 0.00 in0.0 mm 0.00 in0.0 mm 0.01 in0.3 mm
10:40 PM 34.3°F1.3°C 29.4°F-1.4°C 82% 1.3 mph S2.1 kmh S 3.4 mph5.5 kmh 30.31 in1026.4 mb 0.00 in0.0 mm 0.00 in0.0 mm 0.01 in0.3 mm
10:50 PM 34.3°F1.3°C 29.4°F-1.4°C 82% 1.4 mph WSW2.3 kmh WSW 3.4 mph5.5 kmh 30.31 in1026.4 mb 0.00 in0.0 mm 0.00 in0.0 mm 0.01 in0.3 mm
11:00 PM 34.3°F1.3°C 29.4°F-1.4°C 82% 0.9 mph S1.4 kmh S 2.5 mph4.0 kmh 30.31 in1026.4 mb 0.00 in0.0 mm 0.00 in0.0 mm 0.01 in0.3 mm
11:10 PM 34.2°F1.2°C 29.2°F-1.6°C 82% 1.3 mph S2.1 kmh S 1.7 mph2.7 kmh 30.31 in1026.4 mb 0.00 in0.0 mm 0.00 in0.0 mm 0.01 in0.3 mm
11:20 PM 34.0°F1.1°C 29.1°F-1.6°C 82% 0.8 mph W1.3 kmh W 1.7 mph2.7 kmh 30.31 in1026.4 mb 0.00 in0.0 mm 0.00 in0.0 mm 0.01 in0.3 mm
11:30 PM 34.2°F1.2°C 29.2°F-1.6°C 82% 1.4 mph SSE2.3 kmh SSE 2.5 mph4.0 kmh 30.32 in1026.8 mb 0.00 in0.0 mm 0.00 in0.0 mm 0.01 in0.3 mm
11:40 PM 34.2°F1.2°C 29.2°F-1.6°C 82% 1.1 mph SW1.8 kmh SW 3.4 mph5.5 kmh 30.31 in1026.4 mb 0.00 in0.0 mm 0.00 in0.0 mm 0.01 in0.3 mm
11:50 PM 34.0°F1.1°C 29.1°F-1.6°C 82% 0.8 mph SSW1.3 kmh SSW 2.5 mph4.0 kmh 30.32 in1026.8 mb 0.00 in0.0 mm 0.00 in0.0 mm 0.01 in0.3 mm